Chicago, Illinois
Current Conditions -  °F | °C
As of 11:53 PM on Monday 20 Oct 2014 (Local Time) from KMDW Reporting Station
Broken Clouds Broken Clouds  
Wind Chill: 12°   Ceiling: 5500
Heat Index: 12°   Visibility: 10mi
Dew Point:   Wind: 10mph
Humidity: 66%   Direction: 350°N
Pressure: 29.99"   Gusts: NA
Location:  41.88°N, 87.63°W
Report Text: KMDW 210453Z 35009KT 10SM FEW025 BKN055 12/06 A2999 RMK AO2 SLP154 T01220061
Loading
Personal Weather Stations






























Interactive Weather Map New forecast layout! Learn more

10-Day Weather Forecast

Advertisements
Track Severe Weather on mobile